createdAt,value
2023-05-09T00:01:42.904Z,4.70
2023-05-09T00:04:10.293Z,4.72
2023-05-09T00:06:38.899Z,5.22
2023-05-09T00:09:07.366Z,5.50
2023-05-09T00:11:34.441Z,5.95
2023-05-09T00:14:01.938Z,5.00
2023-05-09T00:16:29.067Z,7.43
2023-05-09T00:18:56.446Z,6.18
2023-05-09T00:21:23.478Z,5.45
2023-05-09T00:23:53.288Z,5.28
2023-05-09T00:26:22.511Z,5.72
2023-05-09T00:28:57.251Z,5.70
2023-05-09T00:31:24.441Z,5.50
2023-05-09T00:33:53.631Z,5.35
2023-05-09T00:36:20.629Z,4.88
2023-05-09T00:38:47.972Z,5.13
2023-05-09T00:41:17.517Z,5.03
2023-05-09T00:43:44.852Z,5.07
2023-05-09T00:46:12.086Z,4.88
2023-05-09T00:48:42.029Z,4.88
2023-05-09T00:51:09.111Z,5.22
2023-05-09T00:53:36.698Z,4.80
2023-05-09T00:56:04.700Z,5.57
2023-05-09T00:58:34.675Z,6.57
2023-05-09T01:01:01.720Z,5.60
2023-05-09T01:03:29.591Z,5.28
2023-05-09T01:06:05.224Z,5.40
2023-05-09T01:08:48.565Z,6.10
2023-05-09T01:11:38.762Z,5.90
2023-05-09T01:14:22.400Z,5.47
2023-05-09T01:17:12.838Z,6.10
2023-05-09T01:20:08.757Z,5.78
2023-05-09T01:22:37.849Z,5.85
2023-05-09T01:25:20.289Z,6.03
2023-05-09T01:27:56.294Z,5.53
2023-05-09T01:30:26.523Z,5.30
2023-05-09T01:32:58.013Z,5.88
2023-05-09T01:35:30.673Z,5.90
2023-05-09T01:38:01.377Z,6.20
2023-05-09T01:40:33.447Z,6.15
2023-05-09T01:43:07.864Z,5.53
2023-05-09T01:45:39.253Z,5.95
2023-05-09T01:48:08.279Z,5.93
2023-05-09T01:50:37.483Z,5.63
2023-05-09T01:53:10.441Z,7.03
2023-05-09T01:55:41.088Z,6.25
2023-05-09T01:58:09.303Z,6.05
2023-05-09T02:00:37.132Z,7.28
2023-05-09T02:03:04.692Z,6.93
2023-05-09T02:05:34.841Z,6.95
2023-05-09T02:08:01.999Z,8.00
2023-05-09T02:10:30.770Z,7.13
2023-05-09T02:12:58.025Z,6.85
2023-05-09T02:15:26.161Z,7.03
2023-05-09T02:17:53.318Z,7.97
2023-05-09T02:20:23.563Z,8.15
2023-05-09T02:22:51.195Z,7.47
2023-05-09T02:25:23.428Z,7.72
2023-05-09T02:27:52.318Z,7.90
2023-05-09T02:30:23.580Z,7.25
2023-05-09T02:32:56.837Z,7.80
2023-05-09T02:35:27.219Z,7.55
2023-05-09T02:37:55.742Z,8.02
2023-05-09T02:40:26.361Z,7.82
2023-05-09T02:42:53.426Z,6.97
2023-05-09T02:45:23.058Z,6.95
2023-05-09T02:47:50.308Z,7.38
2023-05-09T02:50:17.724Z,7.32
2023-05-09T02:52:45.128Z,7.35
2023-05-09T02:55:15.202Z,7.70
2023-05-09T02:57:42.473Z,7.10
2023-05-09T03:00:10.361Z,7.20
2023-05-09T03:02:38.379Z,7.32
2023-05-09T03:05:06.374Z,7.45
2023-05-09T03:07:35.686Z,7.95
2023-05-09T03:10:03.028Z,7.63
2023-05-09T03:12:30.068Z,8.93
2023-05-09T03:14:59.917Z,7.93
2023-05-09T03:17:26.996Z,7.78
2023-05-09T03:19:54.344Z,7.75
2023-05-09T03:22:21.361Z,7.68
2023-05-09T03:24:48.679Z,7.53
2023-05-09T03:27:18.040Z,7.07
2023-05-09T03:29:45.380Z,8.20
2023-05-09T03:32:13.950Z,7.60
2023-05-09T03:34:45.110Z,7.38
2023-05-09T03:37:14.608Z,7.75
2023-05-09T03:39:41.999Z,7.80
2023-05-09T03:42:09.160Z,6.60
2023-05-09T03:44:38.756Z,6.50
2023-05-09T03:47:05.847Z,6.93
2023-05-09T03:49:35.695Z,7.00
2023-05-09T03:52:03.759Z,7.18
2023-05-09T03:54:31.185Z,7.13
2023-05-09T03:56:58.180Z,7.28
2023-05-09T03:59:25.509Z,7.75
2023-05-09T04:01:52.654Z,6.82
2023-05-09T04:04:22.539Z,6.85
2023-05-09T04:06:49.701Z,6.55
2023-05-09T04:09:17.043Z,6.32
2023-05-09T04:11:44.036Z,6.82
2023-05-09T04:14:11.367Z,6.28
2023-05-09T04:16:38.443Z,8.60
2023-05-09T04:19:08.091Z,7.65
2023-05-09T04:21:37.599Z,6.50
2023-05-09T04:24:05.206Z,9.20
2023-05-09T04:26:32.448Z,8.48
2023-05-09T04:28:59.793Z,7.45
2023-05-09T04:31:26.971Z,6.85
2023-05-09T04:33:54.328Z,6.60
2023-05-09T04:36:21.365Z,6.03
2023-05-09T04:38:48.709Z,5.80
2023-05-09T04:41:15.815Z,6.28
2023-05-09T04:43:45.571Z,5.75
2023-05-09T04:46:15.115Z,5.80
2023-05-09T04:48:42.492Z,5.32
2023-05-09T04:51:09.817Z,5.28
2023-05-09T04:53:37.211Z,6.20
2023-05-09T04:56:04.352Z,5.40
2023-05-09T04:58:31.729Z,5.97
2023-05-09T05:00:58.951Z,6.57
2023-05-09T05:03:26.332Z,6.18
2023-05-09T05:05:55.624Z,6.13
2023-05-09T05:08:23.385Z,6.25
2023-05-09T05:10:50.575Z,6.28
2023-05-09T05:13:17.978Z,6.32
2023-05-09T05:15:47.342Z,5.20
2023-05-09T05:18:14.716Z,5.78
2023-05-09T05:20:42.518Z,6.93
2023-05-09T05:23:10.184Z,5.35
2023-05-09T05:25:37.264Z,5.60
2023-05-09T05:28:04.709Z,5.40
2023-05-09T05:30:34.153Z,5.05
2023-05-09T05:33:04.351Z,5.18
2023-05-09T05:35:33.680Z,5.07
2023-05-09T05:38:01.112Z,5.95
2023-05-09T05:40:28.156Z,5.47
2023-05-09T05:42:55.491Z,4.97
2023-05-09T05:45:27.574Z,4.75
2023-05-09T05:47:57.471Z,4.53
2023-05-09T05:50:24.522Z,4.50
2023-05-09T05:52:51.921Z,4.22
2023-05-09T05:55:21.316Z,4.63
2023-05-09T05:57:48.715Z,4.82
2023-05-09T06:00:16.417Z,5.20
2023-05-09T06:02:44.168Z,4.68
2023-05-09T06:05:12.225Z,4.95
2023-05-09T06:07:40.096Z,5.13
2023-05-09T06:10:10.943Z,4.75
2023-05-09T06:12:40.785Z,5.35
2023-05-09T06:15:08.119Z,5.53
2023-05-09T06:17:35.772Z,5.70
2023-05-09T06:20:02.922Z,5.22
2023-05-09T06:22:30.289Z,4.63
2023-05-09T06:24:57.471Z,4.65
2023-05-09T06:27:24.910Z,5.13
2023-05-09T06:29:51.953Z,5.85
2023-05-09T06:32:24.133Z,4.50
2023-05-09T06:34:51.192Z,5.03
2023-05-09T06:37:18.883Z,5.00
2023-05-09T06:39:50.339Z,5.13
2023-05-09T06:42:20.154Z,4.90
2023-05-09T06:44:49.732Z,7.72
2023-05-09T06:47:19.526Z,4.85
2023-05-09T06:49:46.623Z,5.38
2023-05-09T06:52:14.017Z,4.70
2023-05-09T06:54:41.176Z,4.68
2023-05-09T06:57:10.829Z,4.82
2023-05-09T06:59:40.536Z,4.60
2023-05-09T07:02:07.922Z,4.43
2023-05-09T07:04:37.589Z,4.45
2023-05-09T07:07:05.026Z,4.88
2023-05-09T07:09:32.106Z,4.70
2023-05-09T07:12:00.491Z,4.60
2023-05-09T07:14:27.723Z,4.60
2023-05-09T07:17:02.213Z,4.30
2023-05-09T07:19:37.305Z,4.80
2023-05-09T07:22:09.400Z,4.38
2023-05-09T07:24:36.407Z,4.90
2023-05-09T07:27:03.945Z,4.88
2023-05-09T07:29:31.032Z,4.72
2023-05-09T07:32:01.432Z,5.10
2023-05-09T07:34:28.536Z,4.95
2023-05-09T07:37:00.710Z,5.53
2023-05-09T07:39:27.733Z,5.43
2023-05-09T07:41:57.297Z,5.50
2023-05-09T07:44:24.362Z,5.35
2023-05-09T07:46:51.763Z,5.60
2023-05-09T07:49:21.589Z,5.78
2023-05-09T07:51:49.089Z,6.10
2023-05-09T07:54:16.178Z,6.22
2023-05-09T07:56:43.549Z,6.18
2023-05-09T07:59:10.647Z,5.13
2023-05-09T08:01:40.467Z,5.00
2023-05-09T08:04:10.111Z,5.85
2023-05-09T08:06:40.122Z,5.30
2023-05-09T08:09:07.252Z,4.85
2023-05-09T08:11:35.195Z,4.97
2023-05-09T08:14:02.639Z,5.53
2023-05-09T08:16:32.596Z,5.72
2023-05-09T08:18:59.769Z,4.88
2023-05-09T08:21:27.125Z,4.35
2023-05-09T08:23:54.207Z,4.45
2023-05-09T08:26:21.596Z,4.57
2023-05-09T08:28:48.619Z,4.68
2023-05-09T08:31:15.992Z,4.70
2023-05-09T08:33:43.096Z,5.13
2023-05-09T08:36:10.469Z,5.00
2023-05-09T08:38:39.757Z,4.53
2023-05-09T08:41:07.105Z,5.20
2023-05-09T08:43:34.574Z,4.63
2023-05-09T08:46:09.894Z,4.53
2023-05-09T08:48:39.737Z,5.20
2023-05-09T08:51:07.781Z,5.15
2023-05-09T08:53:37.642Z,5.20
2023-05-09T08:56:07.672Z,4.82
2023-05-09T08:58:34.956Z,5.10
2023-05-09T09:01:03.204Z,4.50
2023-05-09T09:03:30.863Z,5.13
2023-05-09T09:06:01.079Z,5.28
2023-05-09T09:08:28.886Z,6.10
2023-05-09T09:10:56.452Z,5.90
2023-05-09T09:13:26.243Z,5.28
2023-05-09T09:15:54.738Z,6.13
2023-05-09T09:18:25.988Z,6.72
2023-05-09T09:21:09.432Z,5.97
2023-05-09T09:23:43.002Z,5.45
2023-05-09T09:26:10.636Z,5.97
2023-05-09T09:28:37.738Z,5.97
2023-05-09T09:31:26.244Z,6.68
2023-05-09T09:33:59.664Z,6.03
2023-05-09T09:36:28.378Z,6.72
2023-05-09T09:39:00.055Z,6.85
2023-05-09T09:41:48.239Z,6.85
2023-05-09T09:44:18.001Z,7.40
2023-05-09T09:46:54.386Z,8.07
2023-05-09T09:49:26.442Z,8.80
2023-05-09T09:51:56.415Z,8.63
2023-05-09T09:54:26.586Z,8.18
2023-05-09T09:56:54.766Z,8.38
2023-05-09T09:59:24.699Z,7.70
2023-05-09T10:01:57.932Z,7.20
2023-05-09T10:04:27.261Z,6.95
2023-05-09T10:06:59.221Z,7.53
2023-05-09T10:09:27.862Z,7.07
2023-05-09T10:11:56.781Z,7.95
2023-05-09T10:14:27.762Z,7.57
2023-05-09T10:16:57.021Z,8.40
2023-05-09T10:19:28.785Z,7.88
2023-05-09T10:22:03.076Z,7.80
2023-05-09T10:24:55.008Z,8.13
2023-05-09T10:27:28.925Z,6.70
2023-05-09T10:30:08.793Z,6.70
2023-05-09T10:32:47.531Z,6.60
2023-05-09T10:35:18.179Z,7.65
2023-05-09T10:37:46.266Z,6.57
2023-05-09T10:40:13.625Z,7.30
2023-05-09T10:42:45.205Z,7.05
2023-05-09T10:45:12.984Z,7.50
2023-05-09T10:47:43.077Z,8.07
2023-05-09T10:50:11.906Z,5.93
2023-05-09T10:53:03.566Z,6.68
2023-05-09T10:56:05.840Z,7.97
2023-05-09T10:58:34.519Z,7.28
2023-05-09T11:01:03.768Z,6.93
2023-05-09T11:03:58.962Z,7.63
2023-05-09T11:06:49.558Z,7.07
2023-05-09T11:09:30.451Z,6.57
2023-05-09T11:12:13.055Z,6.30
2023-05-09T11:14:45.654Z,5.88
2023-05-09T11:17:12.704Z,5.93
2023-05-09T11:20:03.394Z,6.22
2023-05-09T11:22:37.719Z,5.97
2023-05-09T11:25:09.093Z,6.20
2023-05-09T11:27:45.209Z,5.80
2023-05-09T11:30:14.800Z,5.65
2023-05-09T11:32:45.066Z,5.82
2023-05-09T11:35:20.271Z,6.00
2023-05-09T11:37:52.838Z,5.68
2023-05-09T11:40:21.910Z,5.72
2023-05-09T11:42:51.824Z,5.95
2023-05-09T11:45:22.065Z,5.55
2023-05-09T11:47:52.109Z,6.53
2023-05-09T11:50:20.230Z,5.60
2023-05-09T11:52:48.232Z,5.70
2023-05-09T11:55:20.966Z,6.07
2023-05-09T11:57:50.428Z,5.80
2023-05-09T12:00:22.783Z,5.18
2023-05-09T12:02:50.540Z,6.03
2023-05-09T12:05:19.486Z,5.88
2023-05-09T12:07:49.352Z,5.47
2023-05-09T12:10:20.650Z,5.10
2023-05-09T12:12:49.542Z,4.80
2023-05-09T12:15:19.592Z,5.05
2023-05-09T12:17:50.497Z,4.75
2023-05-09T12:20:19.256Z,5.07
2023-05-09T12:22:55.250Z,5.20
2023-05-09T12:25:22.852Z,5.43
2023-05-09T12:27:49.960Z,5.00
2023-05-09T12:30:17.369Z,5.43
2023-05-09T12:32:46.940Z,5.30
2023-05-09T12:35:14.872Z,5.65
2023-05-09T12:37:55.726Z,5.22
2023-05-09T12:40:25.495Z,5.15
2023-05-09T12:42:52.926Z,8.55
2023-05-09T12:45:20.577Z,4.78
2023-05-09T12:47:51.904Z,4.78
2023-05-09T12:50:21.811Z,5.88
2023-05-09T12:53:02.522Z,5.03
2023-05-09T12:55:31.465Z,5.03
2023-05-09T12:58:00.946Z,5.45
2023-05-09T13:00:28.679Z,4.30
2023-05-09T13:02:55.944Z,4.55
2023-05-09T13:05:23.742Z,4.70
2023-05-09T13:07:57.162Z,4.35
2023-05-09T13:10:26.374Z,4.80
2023-05-09T13:12:53.511Z,3.78
2023-05-09T13:15:22.242Z,4.55
2023-05-09T13:17:51.212Z,4.07
2023-05-09T13:20:20.617Z,4.75
2023-05-09T13:22:50.328Z,4.47
2023-05-09T13:25:17.418Z,4.25
2023-05-09T13:27:47.305Z,3.85
2023-05-09T13:30:18.524Z,4.10
2023-05-09T13:32:46.294Z,4.85
2023-05-09T13:35:14.011Z,4.18
2023-05-09T13:37:43.888Z,3.97
2023-05-09T13:40:11.533Z,3.72
2023-05-09T13:42:39.136Z,4.03
2023-05-09T13:45:06.766Z,4.15
2023-05-09T13:47:35.975Z,4.00
2023-05-09T13:50:06.205Z,4.32
2023-05-09T13:52:33.619Z,4.70
2023-05-09T13:55:00.686Z,4.55
2023-05-09T13:57:28.083Z,4.40
2023-05-09T13:59:55.125Z,4.55
2023-05-09T14:02:22.497Z,4.18
2023-05-09T14:04:54.083Z,4.32
2023-05-09T14:07:23.989Z,4.68
2023-05-09T14:09:56.168Z,4.45
2023-05-09T14:12:26.254Z,4.75
2023-05-09T14:14:53.309Z,4.10
2023-05-09T14:17:20.687Z,4.38
2023-05-09T14:19:47.776Z,4.53
2023-05-09T14:22:17.411Z,4.40
2023-05-09T14:24:44.661Z,4.22
2023-05-09T14:27:12.248Z,4.20
2023-05-09T14:29:41.217Z,4.45
2023-05-09T14:32:09.121Z,5.00
2023-05-09T14:34:36.249Z,5.32
2023-05-09T14:37:05.956Z,5.10
2023-05-09T14:39:33.000Z,4.72
2023-05-09T14:42:05.036Z,4.55
2023-05-09T14:44:32.636Z,5.65
2023-05-09T14:47:00.030Z,4.72
2023-05-09T14:49:27.188Z,5.05
2023-05-09T14:51:56.734Z,4.68
2023-05-09T14:54:23.772Z,5.15
2023-05-09T14:56:51.195Z,4.75
2023-05-09T14:59:18.255Z,5.00
2023-05-09T15:01:45.639Z,5.82
2023-05-09T15:04:12.859Z,5.43
2023-05-09T15:06:45.211Z,5.00
2023-05-09T15:09:12.316Z,5.80
2023-05-09T15:11:48.301Z,5.47
2023-05-09T15:14:16.916Z,5.68
2023-05-09T15:16:44.575Z,5.38
2023-05-09T15:19:16.782Z,5.45
2023-05-09T15:21:46.102Z,6.50
2023-05-09T15:24:13.458Z,5.20
2023-05-09T15:26:40.532Z,5.35
2023-05-09T15:29:07.945Z,5.10
2023-05-09T15:31:36.374Z,5.65
2023-05-09T15:34:04.382Z,4.72
2023-05-09T15:36:31.639Z,6.47
2023-05-09T15:39:01.554Z,5.43
2023-05-09T15:41:31.209Z,5.22
2023-05-09T15:43:58.612Z,4.65
2023-05-09T15:46:25.685Z,6.05
2023-05-09T15:48:55.388Z,5.40
2023-05-09T15:51:25.335Z,5.15
2023-05-09T15:53:52.796Z,5.38
2023-05-09T15:56:19.853Z,5.35
2023-05-09T15:58:47.585Z,5.13
2023-05-09T16:01:14.706Z,5.40
2023-05-09T16:03:42.312Z,4.82
2023-05-09T16:06:11.714Z,4.93
2023-05-09T16:08:39.101Z,5.47
2023-05-09T16:11:06.180Z,5.38
2023-05-09T16:13:35.748Z,4.25
2023-05-09T16:16:05.546Z,5.00
2023-05-09T16:18:33.213Z,4.72
2023-05-09T16:21:00.592Z,4.90
2023-05-09T16:23:30.502Z,5.53
2023-05-09T16:25:57.555Z,5.53
2023-05-09T16:28:25.030Z,5.53
2023-05-09T16:30:54.976Z,5.72
2023-05-09T16:33:22.301Z,5.80
2023-05-09T16:35:49.435Z,5.75
2023-05-09T16:38:19.282Z,5.45
2023-05-09T16:40:46.605Z,5.60
2023-05-09T16:43:14.007Z,6.28
2023-05-09T16:45:41.072Z,5.65
2023-05-09T16:48:10.847Z,5.70
2023-05-09T16:50:38.266Z,6.85
2023-05-09T16:53:05.671Z,6.10
2023-05-09T16:55:32.746Z,6.60
2023-05-09T16:58:00.101Z,6.38
2023-05-09T17:00:29.980Z,6.28
2023-05-09T17:02:59.605Z,6.65
2023-05-09T17:05:26.731Z,7.53
2023-05-09T17:07:54.189Z,6.60
2023-05-09T17:10:22.324Z,6.50
2023-05-09T17:12:49.842Z,7.25
2023-05-09T17:15:19.344Z,7.40
2023-05-09T17:17:49.089Z,7.00
2023-05-09T17:20:18.705Z,6.70
2023-05-09T17:22:46.158Z,6.78
2023-05-09T17:25:13.557Z,7.03
2023-05-09T17:27:43.120Z,6.75
2023-05-09T17:30:10.690Z,6.93
2023-05-09T17:32:37.806Z,7.32
2023-05-09T17:35:05.499Z,7.38
2023-05-09T17:37:35.075Z,7.07
2023-05-09T17:40:02.757Z,7.90
2023-05-09T17:42:29.869Z,8.00
2023-05-09T17:44:59.825Z,7.43
2023-05-09T17:47:27.707Z,7.72
2023-05-09T17:49:55.085Z,7.10
2023-05-09T17:52:22.195Z,7.47
2023-05-09T17:54:49.990Z,7.57
2023-05-09T17:57:18.225Z,7.75
2023-05-09T17:59:47.722Z,7.30
2023-05-09T18:02:17.350Z,7.22
2023-05-09T18:04:44.922Z,8.15
2023-05-09T18:07:12.088Z,7.75
2023-05-09T18:09:39.538Z,7.10
2023-05-09T18:12:08.905Z,7.97
2023-05-09T18:14:39.088Z,8.05
2023-05-09T18:17:06.150Z,7.68
2023-05-09T18:19:36.022Z,6.53
2023-05-09T18:22:05.535Z,7.50
2023-05-09T18:24:32.992Z,8.40
2023-05-09T18:27:02.257Z,7.25
2023-05-09T18:29:32.027Z,7.05
2023-05-09T18:32:01.352Z,7.72
2023-05-09T18:34:28.709Z,7.03
2023-05-09T18:36:55.820Z,7.57
2023-05-09T18:39:23.229Z,8.20
2023-05-09T18:41:52.505Z,8.45
2023-05-09T18:44:19.875Z,9.45
2023-05-09T18:46:47.048Z,8.32
2023-05-09T18:49:14.650Z,9.85
2023-05-09T18:51:41.722Z,8.50
2023-05-09T18:54:09.162Z,8.52
2023-05-09T18:56:37.211Z,8.27
2023-05-09T18:59:06.189Z,8.30
2023-05-09T19:01:35.609Z,8.98
2023-05-09T19:04:03.044Z,9.32
2023-05-09T19:06:30.254Z,9.43
2023-05-09T19:08:57.715Z,10.85
2023-05-09T19:11:27.641Z,12.23
2023-05-09T19:13:54.980Z,10.30
2023-05-09T19:16:23.731Z,9.82
2023-05-09T19:18:51.106Z,10.88
2023-05-09T19:21:20.692Z,9.40
2023-05-09T19:23:48.111Z,9.20
2023-05-09T19:26:19.274Z,9.43
2023-05-09T19:28:46.876Z,10.00
2023-05-09T19:31:18.274Z,9.90
2023-05-09T19:33:47.203Z,10.45
2023-05-09T19:36:14.427Z,9.90
2023-05-09T19:38:46.870Z,10.80
2023-05-09T19:41:13.984Z,12.02
2023-05-09T19:43:41.408Z,12.68
2023-05-09T19:46:08.495Z,13.02
2023-05-09T19:48:36.063Z,11.65
2023-05-09T19:51:03.720Z,12.73
2023-05-09T19:53:34.634Z,12.20
2023-05-09T19:56:04.217Z,11.55
2023-05-09T19:58:31.584Z,11.98
2023-05-09T20:00:58.794Z,11.10
2023-05-09T20:03:26.231Z,11.55
2023-05-09T20:05:56.162Z,12.82
2023-05-09T20:08:23.503Z,12.52
2023-05-09T20:10:53.940Z,11.23
2023-05-09T20:13:23.632Z,10.73
2023-05-09T20:15:50.760Z,10.60
2023-05-09T20:18:18.286Z,11.32
2023-05-09T20:20:45.405Z,11.60
2023-05-09T20:23:12.747Z,10.73
2023-05-09T20:25:42.438Z,10.55
2023-05-09T20:28:09.911Z,10.95
2023-05-09T20:30:36.963Z,9.75
2023-05-09T20:33:04.451Z,10.23
2023-05-09T20:35:31.559Z,9.00
2023-05-09T20:38:01.131Z,9.65
2023-05-09T20:40:30.627Z,9.98
2023-05-09T20:42:58.188Z,10.23
2023-05-09T20:45:25.251Z,9.32
2023-05-09T20:47:52.765Z,9.32
2023-05-09T20:50:19.915Z,9.65
2023-05-09T20:52:47.445Z,8.70
2023-05-09T20:55:14.694Z,10.20
2023-05-09T20:57:42.111Z,10.10
2023-05-09T21:00:11.915Z,9.95
2023-05-09T21:02:42.055Z,9.55
2023-05-09T21:05:11.492Z,10.10
2023-05-09T21:07:38.795Z,9.30
2023-05-09T21:10:06.538Z,9.13
2023-05-09T21:12:33.919Z,9.15
2023-05-09T21:15:03.588Z,8.35
2023-05-09T21:17:31.014Z,7.43
2023-05-09T21:20:00.633Z,7.13
2023-05-09T21:22:30.601Z,7.13
2023-05-09T21:25:00.192Z,6.90
2023-05-09T21:27:30.562Z,6.82
2023-05-09T21:29:58.489Z,6.43
2023-05-09T21:32:25.898Z,6.55
2023-05-09T21:34:52.915Z,7.15
2023-05-09T21:37:22.826Z,6.47
2023-05-09T21:39:49.877Z,5.88
2023-05-09T21:42:17.224Z,5.43
2023-05-09T21:44:47.164Z,6.25
2023-05-09T21:47:14.609Z,5.90
2023-05-09T21:49:43.974Z,5.15
2023-05-09T21:52:11.339Z,6.20
2023-05-09T21:54:38.402Z,5.38
2023-05-09T21:57:05.860Z,5.10
2023-05-09T21:59:32.894Z,6.00
2023-05-09T22:02:00.348Z,5.75
2023-05-09T22:04:29.930Z,5.60
2023-05-09T22:06:57.356Z,5.07
2023-05-09T22:09:24.499Z,5.30
2023-05-09T22:11:52.486Z,4.43
2023-05-09T22:14:19.622Z,4.70
2023-05-09T22:16:47.128Z,4.55
2023-05-09T22:19:16.797Z,4.90
2023-05-09T22:21:44.222Z,3.72
2023-05-09T22:24:13.526Z,4.18
2023-05-09T22:26:43.294Z,6.65
2023-05-09T22:29:10.400Z,4.53
2023-05-09T22:31:37.838Z,4.70
2023-05-09T22:34:04.933Z,5.03
2023-05-09T22:36:32.281Z,5.68
2023-05-09T22:38:59.416Z,5.05
2023-05-09T22:41:26.877Z,5.53
2023-05-09T22:43:53.938Z,5.30
2023-05-09T22:46:21.554Z,5.60
2023-05-09T22:48:48.651Z,5.47
2023-05-09T22:51:16.065Z,4.88
2023-05-09T22:53:45.541Z,5.88
2023-05-09T22:56:15.910Z,5.43
2023-05-09T22:58:43.038Z,4.55
2023-05-09T23:01:10.400Z,5.38
2023-05-09T23:03:37.498Z,4.45
2023-05-09T23:06:04.957Z,5.53
2023-05-09T23:08:32.064Z,5.75
2023-05-09T23:10:59.439Z,4.70
2023-05-09T23:13:26.578Z,4.40
2023-05-09T23:15:54.157Z,4.10
2023-05-09T23:18:21.262Z,5.22
2023-05-09T23:20:51.120Z,4.25
2023-05-09T23:23:18.367Z,4.10
2023-05-09T23:25:47.094Z,4.03
2023-05-09T23:28:14.141Z,3.30
2023-05-09T23:30:41.504Z,3.78
2023-05-09T23:33:08.586Z,3.33
2023-05-09T23:35:38.199Z,3.58
2023-05-09T23:38:05.245Z,4.40
2023-05-09T23:40:34.823Z,3.83
2023-05-09T23:43:04.464Z,4.10
2023-05-09T23:45:34.500Z,3.67
2023-05-09T23:48:01.612Z,3.45
2023-05-09T23:50:28.974Z,3.50
2023-05-09T23:52:56.019Z,3.20
2023-05-09T23:55:25.841Z,4.72
2023-05-09T23:57:52.885Z,3.67
